createdAt,value
2023-05-09T00:02:25.514Z,99576.91
2023-05-09T00:04:53.181Z,99575.31
2023-05-09T00:07:20.722Z,99578.09
2023-05-09T00:09:47.949Z,99570.41
2023-05-09T00:12:14.860Z,99573.69
2023-05-09T00:14:42.793Z,99573.75
2023-05-09T00:17:09.837Z,99566.72
2023-05-09T00:19:38.349Z,99567.66
2023-05-09T00:22:07.197Z,99567.81
2023-05-09T00:24:34.403Z,99567.81
2023-05-09T00:27:01.778Z,99562.47
2023-05-09T00:29:29.241Z,99561.41
2023-05-09T00:31:56.623Z,99563.31
2023-05-09T00:34:23.940Z,99564.22
2023-05-09T00:36:51.093Z,99553.91
2023-05-09T00:39:18.302Z,99556.50
2023-05-09T00:41:45.463Z,99555.03
2023-05-09T00:44:12.812Z,99548.22
2023-05-09T00:46:40.331Z,99550.78
2023-05-09T00:49:08.881Z,99548.22
2023-05-09T00:51:37.579Z,99541.56
2023-05-09T00:54:07.685Z,99540.59
2023-05-09T00:56:36.270Z,99539.66
2023-05-09T00:59:03.947Z,99542.94
2023-05-09T01:01:30.903Z,99540.72
2023-05-09T01:03:58.654Z,99551.03
2023-05-09T01:06:43.882Z,99546.75
2023-05-09T01:09:13.983Z,99540.84
2023-05-09T01:11:52.685Z,99545.78
2023-05-09T01:14:46.352Z,99540.81
2023-05-09T01:17:23.411Z,99536.47
2023-05-09T01:19:57.195Z,99539.88
2023-05-09T01:22:31.131Z,99536.16
2023-05-09T01:25:20.179Z,99535.16
2023-05-09T01:28:24.672Z,99541.38
2023-05-09T01:30:53.865Z,99535.53
2023-05-09T01:33:22.427Z,99529.34
2023-05-09T01:35:58.830Z,99535.41
2023-05-09T01:38:26.276Z,99532.69
2023-05-09T01:40:55.270Z,99529.97
2023-05-09T01:43:23.937Z,99530.06
2023-05-09T01:45:52.173Z,99528.44
2023-05-09T01:48:19.179Z,99527.78
2023-05-09T01:50:47.409Z,99519.19
2023-05-09T01:53:15.924Z,99526.06
2023-05-09T01:55:44.248Z,99522.59
2023-05-09T01:58:12.012Z,99519.47
2023-05-09T02:00:39.836Z,99526.19
2023-05-09T02:03:07.514Z,99515.31
2023-05-09T02:05:35.432Z,99516.81
2023-05-09T02:08:02.597Z,99514.28
2023-05-09T02:10:30.255Z,99517.69
2023-05-09T02:12:57.684Z,99521.25
2023-05-09T02:15:26.054Z,99517.13
2023-05-09T02:17:53.471Z,99521.56
2023-05-09T02:20:21.224Z,99514.78
2023-05-09T02:22:48.547Z,99514.88
2023-05-09T02:25:16.377Z,99519.88
2023-05-09T02:27:46.359Z,99512.53
2023-05-09T02:30:24.358Z,99521.16
2023-05-09T02:32:55.936Z,99512.06
2023-05-09T02:35:25.227Z,99510.47
2023-05-09T02:37:52.990Z,99512.16
2023-05-09T02:40:21.257Z,99515.56
2023-05-09T02:42:48.389Z,99511.78
2023-05-09T02:45:16.038Z,99505.03
2023-05-09T02:47:43.512Z,99506.50
2023-05-09T02:50:11.614Z,99502.28
2023-05-09T02:52:39.249Z,99504.78
2023-05-09T02:55:07.700Z,99505.59
2023-05-09T02:57:34.802Z,99509.22
2023-05-09T03:00:02.456Z,99509.31
2023-05-09T03:02:29.653Z,99514.41
2023-05-09T03:04:57.694Z,99506.50
2023-05-09T03:07:25.257Z,99516.78
2023-05-09T03:09:52.644Z,99505.69
2023-05-09T03:12:19.668Z,99502.78
2023-05-09T03:14:47.968Z,99509.41
2023-05-09T03:17:21.489Z,99507.13
2023-05-09T03:19:49.269Z,99504.41
2023-05-09T03:22:16.332Z,99499.09
2023-05-09T03:24:43.976Z,99502.09
2023-05-09T03:27:11.109Z,99502.75
2023-05-09T03:29:38.334Z,99505.25
2023-05-09T03:32:05.763Z,99490.25
2023-05-09T03:34:33.303Z,99492.56
2023-05-09T03:37:00.360Z,99500.97
2023-05-09T03:39:28.143Z,99487.28
2023-05-09T03:41:55.350Z,99490.53
2023-05-09T03:44:22.738Z,99492.13
2023-05-09T03:46:50.538Z,99496.38
2023-05-09T03:49:18.444Z,99485.56
2023-05-09T03:51:45.422Z,99482.47
2023-05-09T03:54:13.194Z,99493.44
2023-05-09T03:56:40.610Z,99483.56
2023-05-09T03:59:08.010Z,99491.22
2023-05-09T04:01:35.261Z,99484.81
2023-05-09T04:04:02.904Z,99486.06
2023-05-09T04:06:30.878Z,99489.50
2023-05-09T04:08:58.283Z,99485.88
2023-05-09T04:11:25.843Z,99482.19
2023-05-09T04:13:54.809Z,99484.59
2023-05-09T04:16:22.088Z,99484.13
2023-05-09T04:18:50.200Z,99482.75
2023-05-09T04:21:17.364Z,99493.25
2023-05-09T04:23:44.737Z,99502.53
2023-05-09T04:26:14.028Z,99494.00
2023-05-09T04:28:41.448Z,99485.03
2023-05-09T04:31:09.271Z,99483.47
2023-05-09T04:33:38.404Z,99491.06
2023-05-09T04:36:06.298Z,99488.44
2023-05-09T04:38:33.924Z,99490.00
2023-05-09T04:41:01.410Z,99496.28
2023-05-09T04:43:28.695Z,99484.47
2023-05-09T04:45:55.805Z,99491.53
2023-05-09T04:48:23.549Z,99485.63
2023-05-09T04:50:50.699Z,99488.00
2023-05-09T04:53:18.471Z,99480.09
2023-05-09T04:55:45.570Z,99486.03
2023-05-09T04:58:13.038Z,99478.84
2023-05-09T05:00:40.281Z,99480.94
2023-05-09T05:03:07.920Z,99483.75
2023-05-09T05:05:37.258Z,99467.75
2023-05-09T05:08:05.289Z,99472.91
2023-05-09T05:10:32.622Z,99467.69
2023-05-09T05:12:59.902Z,99467.38
2023-05-09T05:15:27.536Z,99475.19
2023-05-09T05:17:55.169Z,99471.38
2023-05-09T05:20:22.480Z,99469.38
2023-05-09T05:22:50.345Z,99468.97
2023-05-09T05:25:18.786Z,99463.53
2023-05-09T05:27:46.477Z,99462.31
2023-05-09T05:30:15.683Z,99463.97
2023-05-09T05:32:44.166Z,99458.31
2023-05-09T05:35:14.180Z,99464.31
2023-05-09T05:37:42.031Z,99462.47
2023-05-09T05:40:10.016Z,99470.31
2023-05-09T05:42:37.468Z,99464.69
2023-05-09T05:45:04.961Z,99460.81
2023-05-09T05:47:36.495Z,99468.22
2023-05-09T05:50:07.099Z,99471.38
2023-05-09T05:52:34.931Z,99471.50
2023-05-09T05:55:02.070Z,99467.91
2023-05-09T05:57:29.476Z,99464.84
2023-05-09T05:59:57.209Z,99466.72
2023-05-09T06:02:24.802Z,99464.75
2023-05-09T06:04:53.327Z,99465.44
2023-05-09T06:07:22.521Z,99462.84
2023-05-09T06:09:49.945Z,99466.06
2023-05-09T06:12:17.654Z,99462.72
2023-05-09T06:14:45.504Z,99457.69
2023-05-09T06:17:13.264Z,99459.53
2023-05-09T06:19:40.600Z,99453.72
2023-05-09T06:22:08.351Z,99448.31
2023-05-09T06:24:36.457Z,99449.13
2023-05-09T06:27:04.744Z,99447.28
2023-05-09T06:29:32.285Z,99448.16
2023-05-09T06:31:59.895Z,99450.44
2023-05-09T06:34:27.152Z,99445.19
2023-05-09T06:36:54.981Z,99448.78
2023-05-09T06:39:22.051Z,99443.47
2023-05-09T06:41:49.948Z,99441.63
2023-05-09T06:44:17.557Z,99440.03
2023-05-09T06:46:45.057Z,99439.72
2023-05-09T06:49:14.265Z,99421.03
2023-05-09T06:51:41.898Z,99424.59
2023-05-09T06:54:09.463Z,99430.97
2023-05-09T06:56:37.308Z,99432.56
2023-05-09T06:59:05.354Z,99431.91
2023-05-09T07:01:32.776Z,99426.19
2023-05-09T07:03:59.982Z,99423.97
2023-05-09T07:06:27.808Z,99425.34
2023-05-09T07:08:55.024Z,99429.56
2023-05-09T07:11:23.081Z,99412.78
2023-05-09T07:13:50.377Z,99426.63
2023-05-09T07:16:23.226Z,99415.91
2023-05-09T07:18:50.526Z,99401.81
2023-05-09T07:21:18.353Z,99396.84
2023-05-09T07:23:45.600Z,99407.06
2023-05-09T07:26:13.236Z,99401.88
2023-05-09T07:28:40.593Z,99396.81
2023-05-09T07:31:09.668Z,99394.13
2023-05-09T07:33:36.892Z,99392.81
2023-05-09T07:36:05.593Z,99389.53
2023-05-09T07:38:33.122Z,99389.19
2023-05-09T07:41:01.576Z,99387.75
2023-05-09T07:43:28.870Z,99389.44
2023-05-09T07:45:56.473Z,99387.16
2023-05-09T07:48:23.903Z,99378.25
2023-05-09T07:50:51.725Z,99382.91
2023-05-09T07:53:18.946Z,99373.59
2023-05-09T07:55:48.832Z,99378.06
2023-05-09T07:58:17.592Z,99377.56
2023-05-09T08:00:45.299Z,99369.19
2023-05-09T08:03:12.830Z,99367.00
2023-05-09T08:05:40.985Z,99367.63
2023-05-09T08:08:08.739Z,99357.00
2023-05-09T08:10:36.740Z,99353.34
2023-05-09T08:13:04.288Z,99359.09
2023-05-09T08:15:32.014Z,99357.72
2023-05-09T08:17:59.455Z,99353.47
2023-05-09T08:20:27.445Z,99349.19
2023-05-09T08:22:54.784Z,99352.38
2023-05-09T08:25:22.423Z,99367.34
2023-05-09T08:27:51.579Z,99351.06
2023-05-09T08:30:20.985Z,99358.78
2023-05-09T08:32:48.177Z,99355.41
2023-05-09T08:35:16.367Z,99350.94
2023-05-09T08:37:44.080Z,99353.50
2023-05-09T08:40:11.792Z,99356.56
2023-05-09T08:42:40.441Z,99349.75
2023-05-09T08:45:10.190Z,99354.06
2023-05-09T08:47:40.897Z,99359.22
2023-05-09T08:50:10.218Z,99352.66
2023-05-09T08:52:37.395Z,99345.69
2023-05-09T08:55:05.211Z,99350.31
2023-05-09T08:57:36.074Z,99344.28
2023-05-09T09:00:11.449Z,99351.78
2023-05-09T09:02:41.926Z,99343.78
2023-05-09T09:05:23.818Z,99337.13
2023-05-09T09:07:59.897Z,99332.28
2023-05-09T09:10:29.839Z,99338.44
2023-05-09T09:12:59.070Z,99327.25
2023-05-09T09:15:30.888Z,99331.13
2023-05-09T09:18:00.376Z,99331.66
2023-05-09T09:20:29.266Z,99329.03
2023-05-09T09:23:01.334Z,99323.78
2023-05-09T09:25:29.101Z,99329.41
2023-05-09T09:27:56.359Z,99328.09
2023-05-09T09:30:25.448Z,99318.34
2023-05-09T09:32:52.796Z,99314.63
2023-05-09T09:35:20.643Z,99321.41
2023-05-09T09:37:47.835Z,99329.41
2023-05-09T09:40:15.953Z,99315.84
2023-05-09T09:42:44.450Z,99307.81
2023-05-09T09:45:13.786Z,99299.06
2023-05-09T09:47:42.662Z,99300.53
2023-05-09T09:50:17.624Z,99283.34
2023-05-09T09:52:53.023Z,99310.38
2023-05-09T09:55:22.479Z,99293.16
2023-05-09T09:57:50.675Z,99297.25
2023-05-09T10:00:21.405Z,99293.44
2023-05-09T10:02:53.515Z,99307.47
2023-05-09T10:05:29.941Z,99292.13
2023-05-09T10:08:04.645Z,99292.13
2023-05-09T10:10:34.750Z,99289.75
2023-05-09T10:13:07.824Z,99285.53
2023-05-09T10:15:49.223Z,99282.63
2023-05-09T10:18:32.986Z,99274.16
2023-05-09T10:21:03.603Z,99277.50
2023-05-09T10:23:32.229Z,99270.78
2023-05-09T10:26:12.646Z,99276.13
2023-05-09T10:28:42.763Z,99276.88
2023-05-09T10:31:17.429Z,99264.91
2023-05-09T10:33:49.675Z,99262.44
2023-05-09T10:36:20.932Z,99270.78
2023-05-09T10:38:49.547Z,99270.81
2023-05-09T10:41:19.195Z,99260.13
2023-05-09T10:43:47.623Z,99269.31
2023-05-09T10:46:16.684Z,99259.50
2023-05-09T10:48:44.916Z,99255.13
2023-05-09T10:51:12.897Z,99244.09
2023-05-09T10:53:49.834Z,99255.34
2023-05-09T10:56:24.537Z,99252.28
2023-05-09T10:58:52.121Z,99247.78
2023-05-09T11:01:35.392Z,99249.50
2023-05-09T11:04:13.158Z,99237.91
2023-05-09T11:06:55.708Z,99240.41
2023-05-09T11:09:33.978Z,99231.41
2023-05-09T11:12:12.421Z,99226.06
2023-05-09T11:14:45.266Z,99227.25
2023-05-09T11:17:12.986Z,99223.06
2023-05-09T11:19:43.255Z,99221.63
2023-05-09T11:22:20.308Z,99219.13
2023-05-09T11:24:52.349Z,99220.13
2023-05-09T11:27:24.832Z,99205.72
2023-05-09T11:29:55.722Z,99202.09
2023-05-09T11:32:28.683Z,99208.84
2023-05-09T11:35:10.852Z,99193.38
2023-05-09T11:37:48.717Z,99208.28
2023-05-09T11:40:18.697Z,99196.41
2023-05-09T11:42:56.218Z,99194.59
2023-05-09T11:45:28.211Z,99199.84
2023-05-09T11:47:57.348Z,99179.25
2023-05-09T11:50:25.487Z,99182.00
2023-05-09T11:52:54.208Z,99180.06
2023-05-09T11:55:30.605Z,99181.88
2023-05-09T11:57:59.671Z,99172.53
2023-05-09T12:00:27.090Z,99170.59
2023-05-09T12:02:54.543Z,99161.38
2023-05-09T12:05:23.412Z,99166.97
2023-05-09T12:07:51.155Z,99161.25
2023-05-09T12:10:23.128Z,99163.22
2023-05-09T12:12:52.728Z,99159.16
2023-05-09T12:15:21.862Z,99151.66
2023-05-09T12:18:03.346Z,99157.06
2023-05-09T12:20:48.224Z,99154.97
2023-05-09T12:23:16.216Z,99142.97
2023-05-09T12:25:54.220Z,99131.53
2023-05-09T12:28:23.581Z,99134.06
2023-05-09T12:30:51.951Z,99136.28
2023-05-09T12:33:19.922Z,99139.91
2023-05-09T12:35:48.482Z,99131.38
2023-05-09T12:38:21.827Z,99135.69
2023-05-09T12:40:49.971Z,99121.66
2023-05-09T12:43:17.733Z,99124.72
2023-05-09T12:45:44.621Z,99125.81
2023-05-09T12:48:13.744Z,99126.75
2023-05-09T12:50:41.231Z,99118.88
2023-05-09T12:53:08.418Z,99107.53
2023-05-09T12:55:40.929Z,99103.28
2023-05-09T12:58:08.622Z,99108.78
2023-05-09T13:00:46.176Z,99089.34
2023-05-09T13:03:21.822Z,99104.47
2023-05-09T13:05:59.562Z,99096.06
2023-05-09T13:08:28.369Z,99082.13
2023-05-09T13:11:04.045Z,99083.47
2023-05-09T13:13:42.870Z,99076.91
2023-05-09T13:16:11.237Z,99065.88
2023-05-09T13:18:40.212Z,99073.63
2023-05-09T13:21:07.866Z,99072.28
2023-05-09T13:23:35.162Z,99078.50
2023-05-09T13:26:02.187Z,99065.44
2023-05-09T13:28:30.183Z,99061.75
2023-05-09T13:30:57.515Z,99066.16
2023-05-09T13:33:26.422Z,99073.88
2023-05-09T13:35:54.283Z,99075.75
2023-05-09T13:38:21.587Z,99063.34
2023-05-09T13:40:48.455Z,99064.56
2023-05-09T13:43:16.428Z,99068.75
2023-05-09T13:45:43.432Z,99067.66
2023-05-09T13:48:11.841Z,99047.19
2023-05-09T13:50:39.327Z,99048.56
2023-05-09T13:53:06.493Z,99043.84
2023-05-09T13:55:34.615Z,99049.22
2023-05-09T13:58:02.214Z,99047.78
2023-05-09T14:00:29.273Z,99032.91
2023-05-09T14:02:56.597Z,99036.97
2023-05-09T14:05:25.444Z,99031.59
2023-05-09T14:07:52.966Z,99036.38
2023-05-09T14:10:20.278Z,99034.56
2023-05-09T14:12:48.746Z,99043.13
2023-05-09T14:15:16.481Z,99028.31
2023-05-09T14:17:43.818Z,99015.34
2023-05-09T14:20:11.733Z,99020.00
2023-05-09T14:22:38.956Z,99019.38
2023-05-09T14:25:06.423Z,99008.56
2023-05-09T14:27:37.240Z,99013.84
2023-05-09T14:30:05.116Z,99013.00
2023-05-09T14:32:32.959Z,99012.00
2023-05-09T14:35:00.540Z,99010.66
2023-05-09T14:37:29.627Z,99013.47
2023-05-09T14:39:56.768Z,99010.09
2023-05-09T14:42:24.358Z,99009.56
2023-05-09T14:44:51.374Z,99004.09
2023-05-09T14:47:18.863Z,99004.41
2023-05-09T14:49:46.421Z,98994.00
2023-05-09T14:52:13.920Z,99000.63
2023-05-09T14:54:41.326Z,98997.75
2023-05-09T14:57:09.249Z,98985.34
2023-05-09T14:59:37.262Z,98993.41
2023-05-09T15:02:04.876Z,98990.06
2023-05-09T15:04:33.152Z,98992.75
2023-05-09T15:07:00.694Z,98989.72
2023-05-09T15:09:28.119Z,98979.19
2023-05-09T15:11:56.084Z,98977.75
2023-05-09T15:14:23.019Z,98969.50
2023-05-09T15:16:52.438Z,98963.66
2023-05-09T15:19:20.118Z,98959.69
2023-05-09T15:21:47.349Z,98958.44
2023-05-09T15:24:14.295Z,98966.78
2023-05-09T15:26:42.381Z,98965.06
2023-05-09T15:29:09.592Z,98950.72
2023-05-09T15:31:37.027Z,98952.75
2023-05-09T15:34:05.300Z,98950.88
2023-05-09T15:36:34.116Z,98948.53
2023-05-09T15:39:01.415Z,98950.94
2023-05-09T15:41:29.282Z,98940.16
2023-05-09T15:43:56.493Z,98932.81
2023-05-09T15:46:24.143Z,98933.94
2023-05-09T15:48:53.448Z,98934.25
2023-05-09T15:51:22.774Z,98939.09
2023-05-09T15:53:50.174Z,98931.84
2023-05-09T15:56:19.063Z,98924.09
2023-05-09T15:58:46.315Z,98927.66
2023-05-09T16:01:14.783Z,98919.75
2023-05-09T16:03:43.447Z,98918.44
2023-05-09T16:06:12.975Z,98926.53
2023-05-09T16:08:39.914Z,98918.13
2023-05-09T16:11:07.430Z,98911.56
2023-05-09T16:13:36.023Z,98909.91
2023-05-09T16:16:04.237Z,98912.28
2023-05-09T16:18:31.732Z,98915.94
2023-05-09T16:20:59.738Z,98904.38
2023-05-09T16:23:26.700Z,98901.34
2023-05-09T16:25:54.634Z,98900.91
2023-05-09T16:28:23.669Z,98893.88
2023-05-09T16:30:54.161Z,98894.38
2023-05-09T16:33:21.400Z,98890.34
2023-05-09T16:35:48.707Z,98884.66
2023-05-09T16:38:15.666Z,98879.91
2023-05-09T16:40:43.182Z,98886.44
2023-05-09T16:43:10.137Z,98874.63
2023-05-09T16:45:37.872Z,98876.56
2023-05-09T16:48:06.087Z,98881.19
2023-05-09T16:50:34.016Z,98875.53
2023-05-09T16:53:02.353Z,98883.53
2023-05-09T16:55:30.699Z,98877.00
2023-05-09T16:57:57.647Z,98881.44
2023-05-09T17:00:25.535Z,98886.88
2023-05-09T17:02:53.395Z,98876.34
2023-05-09T17:05:20.847Z,98876.44
2023-05-09T17:07:48.150Z,98867.44
2023-05-09T17:10:16.273Z,98871.34
2023-05-09T17:12:43.670Z,98866.09
2023-05-09T17:15:14.225Z,98868.88
2023-05-09T17:17:41.837Z,98862.84
2023-05-09T17:20:11.742Z,98861.41
2023-05-09T17:22:39.101Z,98859.16
2023-05-09T17:25:07.367Z,98860.22
2023-05-09T17:27:34.822Z,98865.44
2023-05-09T17:30:02.931Z,98871.69
2023-05-09T17:32:30.829Z,98867.47
2023-05-09T17:34:58.553Z,98875.81
2023-05-09T17:37:26.076Z,98868.22
2023-05-09T17:39:54.485Z,98865.22
2023-05-09T17:42:21.796Z,98868.75
2023-05-09T17:44:50.502Z,98875.13
2023-05-09T17:47:17.795Z,98877.38
2023-05-09T17:49:45.139Z,98880.78
2023-05-09T17:52:12.354Z,98879.31
2023-05-09T17:54:40.131Z,98873.72
2023-05-09T17:57:07.565Z,98881.41
2023-05-09T17:59:35.258Z,98878.78
2023-05-09T18:02:03.168Z,98871.19
2023-05-09T18:04:32.887Z,98872.16
2023-05-09T18:07:01.164Z,98875.13
2023-05-09T18:09:29.868Z,98876.34
2023-05-09T18:11:57.642Z,98874.72
2023-05-09T18:14:25.730Z,98871.44
2023-05-09T18:16:53.897Z,98866.41
2023-05-09T18:19:22.117Z,98867.88
2023-05-09T18:21:49.831Z,98859.31
2023-05-09T18:24:21.974Z,98862.91
2023-05-09T18:26:50.173Z,98867.97
2023-05-09T18:29:19.790Z,98874.06
2023-05-09T18:31:48.052Z,98871.09
2023-05-09T18:34:16.406Z,98880.53
2023-05-09T18:36:44.172Z,98885.91
2023-05-09T18:39:14.293Z,98884.91
2023-05-09T18:41:43.292Z,98889.47
2023-05-09T18:44:11.824Z,98879.66
2023-05-09T18:46:40.447Z,98889.56
2023-05-09T18:49:09.930Z,98893.88
2023-05-09T18:51:37.921Z,98896.41
2023-05-09T18:54:06.303Z,98889.47
2023-05-09T18:56:39.442Z,98902.09
2023-05-09T18:59:09.715Z,98886.66
2023-05-09T19:01:38.127Z,98894.38
2023-05-09T19:04:07.311Z,98888.91
2023-05-09T19:06:35.939Z,98888.88
2023-05-09T19:09:04.643Z,98891.28
2023-05-09T19:11:32.442Z,98891.72
2023-05-09T19:14:00.963Z,98889.78
2023-05-09T19:16:28.605Z,98891.19
2023-05-09T19:18:57.888Z,98903.38
2023-05-09T19:21:26.171Z,98894.50
2023-05-09T19:23:54.276Z,98890.13
2023-05-09T19:26:23.324Z,98885.59
2023-05-09T19:28:52.698Z,98882.03
2023-05-09T19:31:25.768Z,98876.13
2023-05-09T19:33:54.498Z,98885.25
2023-05-09T19:36:22.086Z,98890.75
2023-05-09T19:38:50.336Z,98883.63
2023-05-09T19:41:18.662Z,98885.50
2023-05-09T19:43:49.292Z,98883.81
2023-05-09T19:46:17.223Z,98878.03
2023-05-09T19:48:45.653Z,98891.38
2023-05-09T19:51:14.766Z,98886.56
2023-05-09T19:53:42.515Z,98890.16
2023-05-09T19:56:10.159Z,98890.59
2023-05-09T19:58:38.780Z,98891.13
2023-05-09T20:01:07.346Z,98891.84
2023-05-09T20:03:38.815Z,98897.31
2023-05-09T20:06:08.004Z,98887.66
2023-05-09T20:08:36.023Z,98893.06
2023-05-09T20:11:03.400Z,98880.38
2023-05-09T20:13:31.089Z,98892.13
2023-05-09T20:15:59.286Z,98886.59
2023-05-09T20:18:27.117Z,98885.47
2023-05-09T20:20:54.965Z,98891.09
2023-05-09T20:23:23.078Z,98888.19
2023-05-09T20:26:15.760Z,98883.34
2023-05-09T20:28:43.513Z,98879.38
2023-05-09T20:31:10.863Z,98879.03
2023-05-09T20:33:40.552Z,98883.16
2023-05-09T20:36:10.918Z,98886.91
2023-05-09T20:38:38.619Z,98881.88
2023-05-09T20:41:05.757Z,98877.06
2023-05-09T20:43:33.518Z,98877.47
2023-05-09T20:46:01.291Z,98872.44
2023-05-09T20:48:29.052Z,98884.59
2023-05-09T20:50:56.471Z,98876.44
2023-05-09T20:53:26.603Z,98879.66
2023-05-09T20:55:53.910Z,98884.28
2023-05-09T20:58:21.417Z,98885.31
2023-05-09T21:00:48.810Z,98881.53
2023-05-09T21:03:17.203Z,98883.00
2023-05-09T21:05:44.622Z,98884.66
2023-05-09T21:08:12.741Z,98879.69
2023-05-09T21:10:39.750Z,98874.53
2023-05-09T21:13:07.440Z,98873.78
2023-05-09T21:15:34.545Z,98873.34
2023-05-09T21:18:01.914Z,98874.19
2023-05-09T21:20:29.267Z,98874.66
2023-05-09T21:22:56.999Z,98872.56
2023-05-09T21:25:24.252Z,98880.31
2023-05-09T21:27:53.229Z,98870.22
2023-05-09T21:30:20.540Z,98869.84
2023-05-09T21:32:48.081Z,98874.66
2023-05-09T21:35:15.708Z,98866.91
2023-05-09T21:37:43.297Z,98871.31
2023-05-09T21:40:10.862Z,98870.03
2023-05-09T21:42:40.821Z,98874.25
2023-05-09T21:45:08.730Z,98869.00
2023-05-09T21:47:36.947Z,98872.94
2023-05-09T21:50:05.114Z,98866.22
2023-05-09T21:52:32.832Z,98867.25
2023-05-09T21:55:00.131Z,98864.75
2023-05-09T21:57:28.088Z,98863.91
2023-05-09T21:59:56.520Z,98871.97
2023-05-09T22:02:24.210Z,98866.00
2023-05-09T22:04:52.571Z,98864.34
2023-05-09T22:07:22.093Z,98867.78
2023-05-09T22:09:49.349Z,98862.38
2023-05-09T22:12:17.478Z,98857.31
2023-05-09T22:14:52.965Z,98866.47
2023-05-09T22:17:24.952Z,98859.75
2023-05-09T22:19:52.454Z,98863.22
2023-05-09T22:22:20.191Z,98857.31
2023-05-09T22:24:48.223Z,98858.22
2023-05-09T22:27:16.016Z,98855.25
2023-05-09T22:29:43.530Z,98856.06
2023-05-09T22:32:12.214Z,98847.69
2023-05-09T22:34:39.960Z,98852.44
2023-05-09T22:37:07.409Z,98853.19
2023-05-09T22:39:35.070Z,98847.22
2023-05-09T22:42:03.894Z,98851.41
2023-05-09T22:44:32.485Z,98845.31
2023-05-09T22:47:00.456Z,98841.09
2023-05-09T22:49:28.621Z,98843.78
2023-05-09T22:51:55.967Z,98838.94
2023-05-09T22:54:23.673Z,98837.09
2023-05-09T22:56:51.021Z,98832.38
2023-05-09T22:59:18.065Z,98833.22
2023-05-09T23:01:45.580Z,98832.31
2023-05-09T23:04:12.800Z,98840.84
2023-05-09T23:06:40.163Z,98840.34
2023-05-09T23:09:08.260Z,98841.66
2023-05-09T23:11:35.480Z,98842.94
2023-05-09T23:14:02.906Z,98838.03
2023-05-09T23:16:30.886Z,98832.81
2023-05-09T23:18:58.040Z,98830.13
2023-05-09T23:21:25.518Z,98829.66
2023-05-09T23:23:53.343Z,98830.41
2023-05-09T23:26:21.671Z,98821.91
2023-05-09T23:28:48.967Z,98826.47
2023-05-09T23:31:16.965Z,98824.19
2023-05-09T23:33:44.095Z,98829.91
2023-05-09T23:36:11.365Z,98824.44
2023-05-09T23:38:38.649Z,98818.56
2023-05-09T23:41:06.082Z,98817.44
2023-05-09T23:43:34.382Z,98815.28
2023-05-09T23:46:02.005Z,98811.72
2023-05-09T23:48:29.109Z,98813.69
2023-05-09T23:50:56.489Z,98809.47
2023-05-09T23:53:24.054Z,98814.38
2023-05-09T23:55:51.867Z,98809.50
2023-05-09T23:58:18.816Z,98808.84
